createdAt,value
2018-12-02T00:01:53.243Z,101132.52
2018-12-02T00:04:21.569Z,101129.09
2018-12-02T00:06:49.917Z,101133.06
2018-12-02T00:09:18.262Z,101132.70
2018-12-02T00:11:46.637Z,101127.37
2018-12-02T00:14:15.196Z,101131.03
2018-12-02T00:16:43.898Z,101127.31
2018-12-02T00:19:12.244Z,101125.20
2018-12-02T00:21:40.595Z,101127.91
2018-12-02T00:24:08.957Z,101117.72
2018-12-02T00:26:37.327Z,101133.43
2018-12-02T00:29:05.679Z,101124.98
2018-12-02T00:31:34.015Z,101121.16
2018-12-02T00:34:02.354Z,101121.70
2018-12-02T00:36:30.691Z,101118.65
2018-12-02T00:38:59.054Z,101116.69
2018-12-02T00:41:27.382Z,101112.27
2018-12-02T00:43:55.703Z,101115.56
2018-12-02T00:46:24.442Z,101112.25
2018-12-02T00:48:53.377Z,101113.03
2018-12-02T00:51:21.751Z,101111.70
2018-12-02T00:53:50.079Z,101101.95
2018-12-02T00:56:17.902Z,101101.48
2018-12-02T00:58:46.234Z,101097.85
2018-12-02T01:01:14.667Z,101099.42
2018-12-02T01:03:43.008Z,101093.44
2018-12-02T01:06:11.326Z,101097.28
2018-12-02T01:08:39.667Z,101100.33
2018-12-02T01:11:08.030Z,101096.12
2018-12-02T01:13:36.367Z,101091.00
2018-12-02T01:16:04.696Z,101091.68
2018-12-02T01:18:33.272Z,101095.08
2018-12-02T01:21:01.389Z,101096.12
2018-12-02T01:23:29.729Z,101085.73
2018-12-02T01:25:58.420Z,101080.66
2018-12-02T01:28:26.761Z,101078.84
2018-12-02T01:30:55.169Z,101081.66
2018-12-02T01:33:23.542Z,101070.89
2018-12-02T01:35:51.895Z,101075.83
2018-12-02T01:38:20.234Z,101075.98
2018-12-02T01:40:48.614Z,101076.06
2018-12-02T01:43:16.901Z,101067.39
2018-12-02T01:45:45.242Z,101070.31
2018-12-02T01:48:13.576Z,101064.28
2018-12-02T01:50:41.921Z,101056.55
2018-12-02T01:53:10.245Z,101051.85
2018-12-02T01:55:38.614Z,101052.53
2018-12-02T01:58:06.966Z,101044.23
2018-12-02T02:00:35.317Z,101040.13
2018-12-02T02:03:03.709Z,101044.06
2018-12-02T02:05:32.043Z,101042.06
2018-12-02T02:08:00.372Z,101036.58
2018-12-02T02:10:28.704Z,101032.45
2018-12-02T02:12:57.046Z,101027.95
2018-12-02T02:15:25.381Z,101033.65
2018-12-02T02:17:53.718Z,101035.79
2018-12-02T02:20:22.055Z,101026.08
2018-12-02T02:22:50.394Z,101018.30
2018-12-02T02:25:18.741Z,101015.01
2018-12-02T02:27:47.094Z,101019.60
2018-12-02T02:30:15.426Z,101019.94
2018-12-02T02:32:43.772Z,101019.99
2018-12-02T02:35:12.135Z,101015.81
2018-12-02T02:37:40.520Z,101008.71
2018-12-02T02:40:08.885Z,101016.98
2018-12-02T02:42:37.737Z,101007.33
2018-12-02T02:45:05.852Z,100994.55
2018-12-02T02:47:34.189Z,100993.33
2018-12-02T02:50:02.524Z,100988.47
2018-12-02T02:52:30.929Z,100990.74
2018-12-02T02:54:59.277Z,100992.83
2018-12-02T02:57:27.615Z,100985.57
2018-12-02T02:59:55.956Z,100981.39
2018-12-02T03:02:24.294Z,100984.11
2018-12-02T03:04:52.660Z,100984.68
2018-12-02T03:07:21.008Z,100978.63
2018-12-02T03:09:49.348Z,100982.85
2018-12-02T03:12:17.679Z,100978.91
2018-12-02T03:14:46.016Z,100976.92
2018-12-02T03:17:14.360Z,100980.86
2018-12-02T03:19:42.697Z,100975.16
2018-12-02T03:22:11.037Z,100982.73
2018-12-02T03:24:39.367Z,100984.05
2018-12-02T03:27:07.728Z,100977.00
2018-12-02T03:29:36.068Z,100981.44
2018-12-02T03:32:04.435Z,100983.06
2018-12-02T03:34:32.760Z,100984.92
2018-12-02T03:37:01.114Z,100986.67
2018-12-02T03:39:29.470Z,100982.73
2018-12-02T03:41:57.797Z,100978.27
2018-12-02T03:44:26.151Z,100982.94
2018-12-02T03:46:54.495Z,100975.44
2018-12-02T03:49:22.848Z,100972.69
2018-12-02T03:51:51.226Z,100976.42
2018-12-02T03:54:19.571Z,100966.56
2018-12-02T03:56:47.918Z,100963.19
2018-12-02T03:59:16.566Z,100964.13
2018-12-02T04:01:45.131Z,100963.66
2018-12-02T04:04:13.246Z,100965.31
2018-12-02T04:06:41.643Z,100976.08
2018-12-02T04:09:10.014Z,100971.45
2018-12-02T04:11:38.356Z,100967.12
2018-12-02T04:14:06.693Z,100963.91
2018-12-02T04:16:35.021Z,100963.64
2018-12-02T04:19:03.368Z,100958.20
2018-12-02T04:21:31.704Z,100957.70
2018-12-02T04:24:00.031Z,100951.56
2018-12-02T04:26:28.375Z,100948.38
2018-12-02T04:28:56.705Z,100951.77
2018-12-02T04:31:25.043Z,100950.84
2018-12-02T04:33:53.380Z,100946.72
2018-12-02T04:36:21.726Z,100942.22
2018-12-02T04:38:50.063Z,100941.08
2018-12-02T04:41:18.398Z,100940.40
2018-12-02T04:43:46.742Z,100933.95
2018-12-02T04:46:15.072Z,100930.94
2018-12-02T04:48:43.425Z,100919.42
2018-12-02T04:51:11.764Z,100920.42
2018-12-02T04:53:40.105Z,100913.47
2018-12-02T04:56:08.459Z,100910.29
2018-12-02T04:58:36.802Z,100907.05
2018-12-02T05:01:05.146Z,100905.42
2018-12-02T05:03:33.503Z,100904.92
2018-12-02T05:06:01.867Z,100899.33
2018-12-02T05:08:30.243Z,100894.02
2018-12-02T05:10:58.589Z,100887.80
2018-12-02T05:13:26.927Z,100886.49
2018-12-02T05:15:55.278Z,100884.80
2018-12-02T05:18:23.617Z,100880.99
2018-12-02T05:20:51.972Z,100883.23
2018-12-02T05:23:20.314Z,100887.05
2018-12-02T05:25:48.695Z,100883.93
2018-12-02T05:28:17.042Z,100887.12
2018-12-02T05:30:45.387Z,100881.01
2018-12-02T05:33:13.723Z,100877.92
2018-12-02T05:35:42.291Z,100879.27
2018-12-02T05:38:10.416Z,100873.40
2018-12-02T05:40:38.772Z,100865.15
2018-12-02T05:43:07.108Z,100861.35
2018-12-02T05:45:35.455Z,100863.21
2018-12-02T05:48:03.784Z,100863.42
2018-12-02T05:50:32.124Z,100860.72
2018-12-02T05:53:00.465Z,100854.08
2018-12-02T05:55:28.816Z,100853.31
2018-12-02T05:57:57.144Z,100844.22
2018-12-02T06:00:25.512Z,100844.32
2018-12-02T06:02:53.885Z,100837.20
2018-12-02T06:05:22.236Z,100836.53
2018-12-02T06:07:50.574Z,100831.13
2018-12-02T06:10:19.100Z,100826.40
2018-12-02T06:12:47.452Z,100827.01
2018-12-02T06:15:15.792Z,100824.19
2018-12-02T06:17:44.136Z,100823.98
2018-12-02T06:20:12.470Z,100822.30
2018-12-02T06:22:40.842Z,100821.92
2018-12-02T06:25:09.215Z,100824.75
2018-12-02T06:27:37.556Z,100828.36
2018-12-02T06:30:05.902Z,100826.94
2018-12-02T06:32:34.241Z,100824.23
2018-12-02T06:35:02.579Z,100826.03
2018-12-02T06:37:30.929Z,100820.33
2018-12-02T06:39:59.279Z,100821.16
2018-12-02T06:42:27.641Z,100809.61
2018-12-02T06:44:55.984Z,100807.02
2018-12-02T06:47:24.329Z,100802.95
2018-12-02T06:49:52.677Z,100804.46
2018-12-02T06:52:21.036Z,100807.28
2018-12-02T06:54:49.403Z,100802.56
2018-12-02T06:57:17.737Z,100795.73
2018-12-02T06:59:46.104Z,100798.49
2018-12-02T07:02:14.443Z,100800.01
2018-12-02T07:04:42.786Z,100801.47
2018-12-02T07:07:11.148Z,100796.50
2018-12-02T07:09:39.503Z,100790.98
2018-12-02T07:12:08.135Z,100788.47
2018-12-02T07:14:36.465Z,100785.13
2018-12-02T07:17:04.816Z,100782.16
2018-12-02T07:19:33.166Z,100779.52
2018-12-02T07:22:01.515Z,100774.50
2018-12-02T07:24:29.858Z,100780.89
2018-12-02T07:26:58.226Z,100778.64
2018-12-02T07:29:26.570Z,100777.02
2018-12-02T07:31:54.911Z,100775.70
2018-12-02T07:34:23.272Z,100771.80
2018-12-02T07:36:51.616Z,100774.52
2018-12-02T07:39:20.162Z,100768.45
2018-12-02T07:41:49.994Z,100763.13
2018-12-02T07:44:18.293Z,100756.11
2018-12-02T07:46:46.634Z,100755.17
2018-12-02T07:49:15.000Z,100747.89
2018-12-02T07:51:43.318Z,100743.74
2018-12-02T07:54:11.657Z,100741.70
2018-12-02T07:56:40.010Z,100736.72
2018-12-02T07:59:08.395Z,100727.19
2018-12-02T08:01:36.973Z,100722.05
2018-12-02T08:04:05.315Z,100718.33
2018-12-02T08:06:33.891Z,100714.61
2018-12-02T08:09:02.009Z,100717.31
2018-12-02T08:11:30.332Z,100720.80
2018-12-02T08:13:58.705Z,100721.59
2018-12-02T08:16:27.903Z,100719.02
2018-12-02T08:18:56.235Z,100723.81
2018-12-02T08:21:24.562Z,100722.19
2018-12-02T08:23:52.906Z,100717.48
2018-12-02T08:26:28.229Z,100715.88
2018-12-02T08:28:58.647Z,100718.30
2018-12-02T08:31:27.025Z,100712.16
2018-12-02T08:33:55.371Z,100711.89
2018-12-02T08:36:23.748Z,100712.28
2018-12-02T08:38:52.102Z,100711.67
2018-12-02T08:41:20.433Z,100708.81
2018-12-02T08:43:48.774Z,100707.32
2018-12-02T08:46:17.356Z,100712.16
2018-12-02T08:48:45.464Z,100703.92
2018-12-02T08:51:13.803Z,100705.91
2018-12-02T08:53:42.389Z,100701.27
2018-12-02T08:56:11.007Z,100703.73
2018-12-02T08:58:39.352Z,100692.52
2018-12-02T09:01:07.705Z,100685.63
2018-12-02T09:03:36.428Z,100681.47
2018-12-02T09:06:05.170Z,100676.56
2018-12-02T09:08:35.039Z,100679.23
2018-12-02T09:11:03.438Z,100676.73
2018-12-02T09:13:31.840Z,100671.45
2018-12-02T09:16:00.733Z,100669.91
2018-12-02T09:18:29.082Z,100665.70
2018-12-02T09:20:57.466Z,100661.69
2018-12-02T09:23:25.790Z,100651.04
2018-12-02T09:25:54.366Z,100644.71
2018-12-02T09:28:22.488Z,100640.39
2018-12-02T09:30:50.856Z,100644.55
2018-12-02T09:33:19.498Z,100639.75
2018-12-02T09:35:47.829Z,100640.45
2018-12-02T09:38:16.159Z,100632.05
2018-12-02T09:40:44.492Z,100635.08
2018-12-02T09:43:12.834Z,100628.20
2018-12-02T09:45:41.190Z,100625.11
2018-12-02T09:48:09.536Z,100624.30
2018-12-02T09:50:38.667Z,100617.36
2018-12-02T09:53:07.318Z,100613.41
2018-12-02T09:55:35.685Z,100613.98
2018-12-02T09:58:04.038Z,100606.98
2018-12-02T10:00:34.365Z,100604.29
2018-12-02T10:03:00.703Z,100587.84
2018-12-02T10:05:29.035Z,100583.50
2018-12-02T10:07:57.378Z,100585.17
2018-12-02T10:10:25.721Z,100586.27
2018-12-02T10:12:54.067Z,100579.48
2018-12-02T10:15:22.399Z,100561.05
2018-12-02T10:17:50.870Z,100563.88
2018-12-02T10:20:19.249Z,100565.91
2018-12-02T10:22:47.873Z,100553.03
2018-12-02T10:25:16.206Z,100553.83
2018-12-02T10:27:44.542Z,100554.22
2018-12-02T10:30:12.876Z,100548.02
2018-12-02T10:32:41.218Z,100548.27
2018-12-02T10:35:09.563Z,100541.09
2018-12-02T10:37:37.948Z,100545.69
2018-12-02T10:40:06.292Z,100539.81
2018-12-02T10:42:34.647Z,100538.33
2018-12-02T10:45:03.020Z,100538.45
2018-12-02T10:47:31.366Z,100535.22
2018-12-02T10:50:00.175Z,100535.50
2018-12-02T10:52:28.511Z,100525.70
2018-12-02T10:54:56.866Z,100525.56
2018-12-02T10:57:25.204Z,100520.19
2018-12-02T10:59:53.538Z,100524.55
2018-12-02T11:02:21.874Z,100516.02
2018-12-02T11:04:50.210Z,100513.30
2018-12-02T11:07:18.560Z,100511.45
2018-12-02T11:09:46.902Z,100512.88
2018-12-02T11:12:15.238Z,100506.30
2018-12-02T11:14:43.592Z,100505.52
2018-12-02T11:17:11.935Z,100506.89
2018-12-02T11:19:40.360Z,100510.53
2018-12-02T11:22:08.722Z,100512.28
2018-12-02T11:24:37.076Z,100514.52
2018-12-02T11:27:05.422Z,100517.05
2018-12-02T11:29:33.776Z,100510.38
2018-12-02T11:32:02.175Z,100506.75
2018-12-02T11:34:30.521Z,100502.20
2018-12-02T11:36:58.924Z,100503.56
2018-12-02T11:39:27.388Z,100496.96
2018-12-02T11:41:55.764Z,100498.02
2018-12-02T11:44:24.329Z,100493.98
2018-12-02T11:46:52.712Z,100482.98
2018-12-02T11:49:21.079Z,100483.73
2018-12-02T11:51:49.429Z,100485.70
2018-12-02T11:54:18.810Z,100475.61
2018-12-02T11:56:47.268Z,100471.00
2018-12-02T11:59:15.614Z,100473.48
2018-12-02T12:01:44.095Z,100471.61
2018-12-02T12:04:12.448Z,100480.92
2018-12-02T12:06:40.979Z,100482.81
2018-12-02T12:09:09.320Z,100482.08
2018-12-02T12:11:37.695Z,100473.88
2018-12-02T12:14:06.042Z,100472.72
2018-12-02T12:16:34.435Z,100473.23
2018-12-02T12:19:02.803Z,100472.61
2018-12-02T12:21:31.203Z,100465.81
2018-12-02T12:23:59.551Z,100462.52
2018-12-02T12:26:28.017Z,100461.61
2018-12-02T12:28:56.378Z,100456.59
2018-12-02T12:31:24.739Z,100443.11
2018-12-02T12:33:53.115Z,100437.22
2018-12-02T12:36:21.480Z,100439.15
2018-12-02T12:38:49.815Z,100439.50
2018-12-02T12:41:18.157Z,100433.03
2018-12-02T12:43:46.513Z,100420.71
2018-12-02T12:46:14.842Z,100413.98
2018-12-02T12:48:43.222Z,100421.83
2018-12-02T12:51:11.550Z,100419.39
2018-12-02T12:53:39.895Z,100418.05
2018-12-02T12:56:08.243Z,100415.25
2018-12-02T12:58:36.725Z,100415.67
2018-12-02T13:01:05.061Z,100414.47
2018-12-02T13:03:33.655Z,100413.30
2018-12-02T13:06:02.004Z,100414.06
2018-12-02T13:08:30.340Z,100411.88
2018-12-02T13:10:58.721Z,100410.91
2018-12-02T13:13:27.077Z,100402.45
2018-12-02T13:15:55.446Z,100403.59
2018-12-02T13:18:23.778Z,100401.31
2018-12-02T13:20:52.138Z,100396.95
2018-12-02T13:23:20.630Z,100399.64
2018-12-02T13:25:48.993Z,100402.02
2018-12-02T13:28:17.320Z,100398.98
2018-12-02T13:30:46.472Z,100401.36
2018-12-02T13:33:15.504Z,100400.09
2018-12-02T13:35:44.075Z,100395.36
2018-12-02T13:38:12.197Z,100389.43
2018-12-02T13:40:40.523Z,100388.59
2018-12-02T13:43:08.890Z,100383.22
2018-12-02T13:45:37.271Z,100381.12
2018-12-02T13:48:05.620Z,100382.05
2018-12-02T13:50:34.065Z,100377.04
2018-12-02T13:53:02.442Z,100377.47
2018-12-02T13:55:31.010Z,100374.13
2018-12-02T13:57:59.460Z,100372.41
2018-12-02T14:00:27.791Z,100367.52
2018-12-02T14:02:56.163Z,100365.95
2018-12-02T14:05:24.584Z,100361.98
2018-12-02T14:07:52.921Z,100362.52
2018-12-02T14:10:21.856Z,100357.81
2018-12-02T14:12:50.289Z,100354.95
2018-12-02T14:15:18.678Z,100355.17
2018-12-02T14:17:47.059Z,100351.48
2018-12-02T14:20:20.635Z,100346.75
2018-12-02T14:22:48.826Z,100340.73
2018-12-02T14:25:17.234Z,100344.00
2018-12-02T14:27:45.676Z,100343.64
2018-12-02T14:30:14.047Z,100346.45
2018-12-02T14:32:43.164Z,100346.83
2018-12-02T14:35:11.496Z,100342.92
2018-12-02T14:37:40.268Z,100333.91
2018-12-02T14:40:08.602Z,100332.48
2018-12-02T14:42:37.274Z,100331.45
2018-12-02T14:45:05.731Z,100331.32
2018-12-02T14:47:34.303Z,100330.25
2018-12-02T14:50:03.546Z,100321.52
2018-12-02T14:52:33.434Z,100324.33
2018-12-02T14:55:02.168Z,100322.83
2018-12-02T14:57:30.578Z,100321.46
2018-12-02T14:59:59.057Z,100309.68
2018-12-02T15:02:27.460Z,100302.19
2018-12-02T15:04:56.618Z,100305.03
2018-12-02T15:07:25.105Z,100301.08
2018-12-02T15:09:53.567Z,100300.87
2018-12-02T15:12:22.001Z,100296.41
2018-12-02T15:14:52.241Z,100292.44
2018-12-02T15:17:21.277Z,100285.20
2018-12-02T15:19:50.767Z,100281.05
2018-12-02T15:22:19.229Z,100273.36
2018-12-02T15:24:47.580Z,100269.01
2018-12-02T15:27:16.562Z,100260.42
2018-12-02T15:29:44.914Z,100264.09
2018-12-02T15:32:13.457Z,100260.05
2018-12-02T15:34:41.847Z,100255.36
2018-12-02T15:37:10.416Z,100255.21
2018-12-02T15:39:38.633Z,100252.91
2018-12-02T15:42:07.385Z,100255.25
2018-12-02T15:44:37.110Z,100251.89
2018-12-02T15:47:05.549Z,100245.49
2018-12-02T15:49:34.093Z,100251.49
2018-12-02T15:52:02.725Z,100256.50
2018-12-02T15:54:31.060Z,100250.37
2018-12-02T15:56:59.420Z,100246.93
2018-12-02T15:59:30.570Z,100247.37
2018-12-02T16:02:00.084Z,100247.74
2018-12-02T16:04:36.858Z,100258.55
2018-12-02T16:07:06.075Z,100241.86
2018-12-02T16:09:35.543Z,100245.13
2018-12-02T16:12:04.933Z,100242.49
2018-12-02T16:14:33.446Z,100247.36
2018-12-02T16:17:01.882Z,100242.18
2018-12-02T16:19:30.456Z,100243.01
2018-12-02T16:21:59.393Z,100240.88
2018-12-02T16:24:28.234Z,100228.67
2018-12-02T16:26:56.645Z,100220.95
2018-12-02T16:29:24.867Z,100223.99
2018-12-02T16:31:54.103Z,100226.63
2018-12-02T16:34:22.804Z,100225.44
2018-12-02T16:36:51.179Z,100228.02
2018-12-02T16:39:19.738Z,100223.13
2018-12-02T16:41:47.978Z,100220.77
2018-12-02T16:44:16.308Z,100225.96
2018-12-02T16:46:44.970Z,100221.41
2018-12-02T16:49:13.884Z,100220.34
2018-12-02T16:51:42.752Z,100218.27
2018-12-02T16:54:11.164Z,100219.03
2018-12-02T16:56:39.563Z,100217.39
2018-12-02T16:59:07.960Z,100210.80
2018-12-02T17:01:36.510Z,100211.30
2018-12-02T17:04:04.983Z,100211.98
2018-12-02T17:06:33.334Z,100206.29
2018-12-02T17:09:01.892Z,100199.76
2018-12-02T17:11:30.250Z,100191.92
2018-12-02T17:13:58.665Z,100195.22
2018-12-02T17:16:27.181Z,100188.94
2018-12-02T17:18:55.519Z,100187.95
2018-12-02T17:21:24.015Z,100182.34
2018-12-02T17:23:52.475Z,100178.45
2018-12-02T17:26:20.821Z,100176.06
2018-12-02T17:28:49.235Z,100175.49
2018-12-02T17:31:17.699Z,100167.50
2018-12-02T17:33:46.039Z,100173.52
2018-12-02T17:36:14.438Z,100172.67
2018-12-02T17:38:42.949Z,100167.55
2018-12-02T17:41:11.278Z,100170.88
2018-12-02T17:43:43.828Z,100170.16
2018-12-02T17:46:12.292Z,100163.84
2018-12-02T17:48:40.854Z,100159.59
2018-12-02T17:51:09.221Z,100165.95
2018-12-02T17:53:37.642Z,100157.33
2018-12-02T17:56:06.357Z,100162.34
2018-12-02T17:58:34.735Z,100156.05
2018-12-02T18:01:04.472Z,100158.54
2018-12-02T18:03:32.712Z,100156.02
2018-12-02T18:06:01.094Z,100151.99
2018-12-02T18:08:29.719Z,100156.67
2018-12-02T18:10:58.437Z,100151.59
2018-12-02T18:13:29.097Z,100155.44
2018-12-02T18:15:57.631Z,100148.69
2018-12-02T18:18:26.135Z,100146.31
2018-12-02T18:20:54.692Z,100145.41
2018-12-02T18:23:23.334Z,100136.53
2018-12-02T18:25:51.716Z,100138.03
2018-12-02T18:28:20.743Z,100136.83
2018-12-02T18:30:50.919Z,100139.72
2018-12-02T18:33:19.888Z,100137.35
2018-12-02T18:35:48.411Z,100132.79
2018-12-02T18:38:17.800Z,100130.59
2018-12-02T18:40:46.140Z,100133.37
2018-12-02T18:43:14.558Z,100129.05
2018-12-02T18:45:43.669Z,100129.61
2018-12-02T18:48:12.237Z,100126.05
2018-12-02T18:50:40.637Z,100121.80
2018-12-02T18:53:08.972Z,100123.02
2018-12-02T18:55:37.339Z,100128.81
2018-12-02T18:58:05.668Z,100121.53
2018-12-02T19:00:34.062Z,100119.98
2018-12-02T19:03:02.466Z,100121.06
2018-12-02T19:05:30.810Z,100114.45
2018-12-02T19:07:59.256Z,100107.44
2018-12-02T19:10:27.665Z,100108.06
2018-12-02T19:12:56.339Z,100104.73
2018-12-02T19:15:24.663Z,100102.83
2018-12-02T19:17:52.994Z,100099.23
2018-12-02T19:20:21.333Z,100095.31
2018-12-02T19:22:49.714Z,100089.31
2018-12-02T19:25:18.265Z,100087.70
2018-12-02T19:27:46.900Z,100085.13
2018-12-02T19:30:15.442Z,100085.16
2018-12-02T19:32:43.092Z,100083.39
2018-12-02T19:35:12.012Z,100083.70
2018-12-02T19:37:41.082Z,100083.05
2018-12-02T19:40:09.431Z,100081.55
2018-12-02T19:42:37.857Z,100081.36
2018-12-02T19:45:06.267Z,100074.66
2018-12-02T19:47:34.599Z,100076.94
2018-12-02T19:50:02.948Z,100074.78
2018-12-02T19:52:31.278Z,100072.03
2018-12-02T19:54:59.820Z,100066.48
2018-12-02T19:57:28.309Z,100067.29
2018-12-02T19:59:56.726Z,100067.59
2018-12-02T20:02:25.304Z,100068.84
2018-12-02T20:04:53.421Z,100066.78
2018-12-02T20:07:21.761Z,100064.94
2018-12-02T20:09:50.141Z,100065.20
2018-12-02T20:12:18.614Z,100063.84
2018-12-02T20:14:47.111Z,100060.88
2018-12-02T20:17:15.669Z,100051.42
2018-12-02T20:19:43.996Z,100054.02
2018-12-02T20:22:13.592Z,100050.17
2018-12-02T20:24:41.945Z,100050.06
2018-12-02T20:27:10.291Z,100050.78
2018-12-02T20:29:38.714Z,100045.92
2018-12-02T20:32:07.093Z,100042.42
2018-12-02T20:34:35.380Z,100045.03
2018-12-02T20:37:03.767Z,100038.95
2018-12-02T20:39:32.406Z,100039.66
2018-12-02T20:42:00.737Z,100034.50
2018-12-02T20:44:29.085Z,100035.92
2018-12-02T20:46:57.932Z,100034.67
2018-12-02T20:49:26.502Z,100030.17
2018-12-02T20:51:54.613Z,100027.63
2018-12-02T20:54:22.947Z,100031.02
2018-12-02T20:56:51.285Z,100027.34
2018-12-02T20:59:19.728Z,100022.22
2018-12-02T21:01:48.104Z,100015.48
2018-12-02T21:04:16.507Z,100013.61
2018-12-02T21:06:45.044Z,100009.31
2018-12-02T21:09:13.693Z,100004.62
2018-12-02T21:11:42.054Z,100004.55
2018-12-02T21:14:10.517Z,100001.42
2018-12-02T21:16:38.863Z,100006.05
2018-12-02T21:19:07.609Z,100003.45
2018-12-02T21:21:37.281Z,99999.30
2018-12-02T21:24:04.704Z,99997.82
2018-12-02T21:26:33.102Z,99994.77
2018-12-02T21:29:01.779Z,99991.49
2018-12-02T21:31:30.412Z,99989.29
2018-12-02T21:33:58.657Z,99987.17
2018-12-02T21:36:26.988Z,99984.52
2018-12-02T21:38:55.473Z,99980.66
2018-12-02T21:41:24.715Z,99982.20
2018-12-02T21:43:53.083Z,99980.73
2018-12-02T21:46:21.422Z,99976.88
2018-12-02T21:48:49.840Z,99971.67
2018-12-02T21:51:18.192Z,99966.45
2018-12-02T21:53:46.561Z,99965.34
2018-12-02T21:56:14.921Z,99964.70
2018-12-02T21:58:44.175Z,99963.44
2018-12-02T22:01:12.507Z,99959.88
2018-12-02T22:03:40.989Z,99958.41
2018-12-02T22:06:09.348Z,99952.67
2018-12-02T22:08:38.073Z,99952.61
2018-12-02T22:11:06.183Z,99944.27
2018-12-02T22:13:35.156Z,99943.00
2018-12-02T22:16:03.700Z,99945.30
2018-12-02T22:18:32.016Z,99950.66
2018-12-02T22:21:00.583Z,99944.89
2018-12-02T22:23:28.952Z,99939.39
2018-12-02T22:25:57.606Z,99935.88
2018-12-02T22:28:27.048Z,99935.33
2018-12-02T22:30:56.729Z,99930.03
2018-12-02T22:33:25.407Z,99930.66
2018-12-02T22:35:53.726Z,99927.63
2018-12-02T22:38:22.103Z,99921.48
2018-12-02T22:40:50.571Z,99920.56
2018-12-02T22:43:19.026Z,99916.73
2018-12-02T22:45:47.546Z,99912.17
2018-12-02T22:48:15.950Z,99911.73
2018-12-02T22:50:44.433Z,99913.50
2018-12-02T22:53:12.893Z,99907.23
2018-12-02T22:55:41.267Z,99906.62
2018-12-02T22:58:09.605Z,99903.58
2018-12-02T23:00:38.109Z,99896.91
2018-12-02T23:03:06.467Z,99891.16
2018-12-02T23:05:34.799Z,99887.84
2018-12-02T23:08:03.145Z,99886.22
2018-12-02T23:10:31.475Z,99878.41
2018-12-02T23:12:59.806Z,99875.48
2018-12-02T23:15:28.140Z,99876.35
2018-12-02T23:17:56.538Z,99875.80
2018-12-02T23:20:24.996Z,99878.95
2018-12-02T23:22:53.311Z,99875.20
2018-12-02T23:25:21.719Z,99878.22
2018-12-02T23:27:50.056Z,99874.31
2018-12-02T23:30:18.392Z,99870.19
2018-12-02T23:32:46.712Z,99868.94
2018-12-02T23:35:15.113Z,99870.23
2018-12-02T23:37:43.441Z,99866.35
2018-12-02T23:40:11.738Z,99863.28
2018-12-02T23:42:40.091Z,99859.39
2018-12-02T23:45:08.509Z,99860.69
2018-12-02T23:47:36.872Z,99860.44
2018-12-02T23:50:05.265Z,99858.42
2018-12-02T23:52:33.604Z,99852.31
2018-12-02T23:55:01.925Z,99845.66
2018-12-02T23:57:30.272Z,99838.55
2018-12-02T23:59:58.618Z,99838.66
